Glen Cove, Maine
Current Conditions -  °F | °C
As of 11:35 PM on Saturday 25 Oct 2014 (Local Time) from KRKD Reporting Station
Overcast Overcast  
Wind Chill: 54°   Ceiling: 8000
Heat Index: 54°   Visibility: 10mi
Dew Point: 50°   Wind: 7mph
Humidity: 88%   Direction: 200°SSW
Pressure: 29.44"   Gusts: NA
Location:  44.13°N, 69.09°W
Report Text: KRKD 260335Z AUTO 20006KT 10SM BKN080 OVC110 12/10 A2944 RMK AO1
Loading
Personal Weather Stations






























Interactive Weather Map
Tropical Storm Tracking
New forecast layout! Learn more

10-Day Weather Forecast

Advertisements
Track Severe Weather on mobile